sensor_id;sensor_type;location;lat;lon;timestamp;pressure;altitude;pressure_sealevel;temperature;humidity
71857;BME280;63344;46.980;28.882;2023-02-28T00:01:49;101925.16;;;1.42;83.40
71857;BME280;63344;46.980;28.882;2023-02-28T00:04:16;101921.50;;;1.35;83.47
71857;BME280;63344;46.980;28.882;2023-02-28T00:06:43;101918.91;;;1.37;83.63
71857;BME280;63344;46.980;28.882;2023-02-28T00:09:10;101931.16;;;1.38;83.74
71857;BME280;63344;46.980;28.882;2023-02-28T00:11:38;101927.69;;;1.39;83.58
71857;BME280;63344;46.980;28.882;2023-02-28T00:14:11;101925.06;;;1.39;83.68
71857;BME280;63344;46.980;28.882;2023-02-28T00:16:38;101919.78;;;1.36;83.36
71857;BME280;63344;46.980;28.882;2023-02-28T00:19:05;101924.13;;;1.35;83.54
71857;BME280;63344;46.980;28.882;2023-02-28T00:21:33;101933.78;;;1.38;83.79
71857;BME280;63344;46.980;28.882;2023-02-28T00:24:00;101946.91;;;1.41;83.93
71857;BME280;63344;46.980;28.882;2023-02-28T00:26:27;101934.66;;;1.38;83.60
71857;BME280;63344;46.980;28.882;2023-02-28T00:28:54;101946.91;;;1.41;83.47
71857;BME280;63344;46.980;28.882;2023-02-28T00:31:22;101953.97;;;1.45;83.46
71857;BME280;63344;46.980;28.882;2023-02-28T00:33:49;101952.34;;;1.50;83.15
71857;BME280;63344;46.980;28.882;2023-02-28T00:36:18;101945.28;;;1.46;83.22
71857;BME280;63344;46.980;28.882;2023-02-28T00:38:45;101947.91;;;1.46;83.48
71857;BME280;63344;46.980;28.882;2023-02-28T00:41:13;101961.91;;;1.48;83.63
71857;BME280;63344;46.980;28.882;2023-02-28T00:43:40;101945.25;;;1.45;83.66
71857;BME280;63344;46.980;28.882;2023-02-28T00:46:08;101958.63;;;1.58;83.96
71857;BME280;63344;46.980;28.882;2023-02-28T00:48:35;101959.50;;;1.59;83.78
71857;BME280;63344;46.980;28.882;2023-02-28T00:51:03;101958.66;;;1.62;83.96
71857;BME280;63344;46.980;28.882;2023-02-28T00:53:30;101972.78;;;1.68;84.00
71857;BME280;63344;46.980;28.882;2023-02-28T00:55:59;101975.44;;;1.70;83.59
71857;BME280;63344;46.980;28.882;2023-02-28T00:58:27;101969.28;;;1.69;83.53
71857;BME280;63344;46.980;28.882;2023-02-28T01:00:55;101967.56;;;1.70;83.32
71857;BME280;63344;46.980;28.882;2023-02-28T01:03:22;101972.81;;;1.71;83.47
71857;BME280;63344;46.980;28.882;2023-02-28T01:05:50;101974.56;;;1.71;83.02
71857;BME280;63344;46.980;28.882;2023-02-28T01:08:17;101975.31;;;1.65;83.38
71857;BME280;63344;46.980;28.882;2023-02-28T01:10:44;101976.19;;;1.66;83.60
71857;BME280;63344;46.980;28.882;2023-02-28T01:13:12;101972.69;;;1.65;83.83
71857;BME280;63344;46.980;28.882;2023-02-28T01:15:42;101978.81;;;1.66;83.61
71857;BME280;63344;46.980;28.882;2023-02-28T01:18:10;101978.00;;;1.68;83.71
71857;BME280;63344;46.980;28.882;2023-02-28T01:20:38;101977.16;;;1.69;83.74
71857;BME280;63344;46.980;28.882;2023-02-28T01:23:05;101986.81;;;1.72;83.72
71857;BME280;63344;46.980;28.882;2023-02-28T01:25:35;101975.34;;;1.67;83.71
71857;BME280;63344;46.980;28.882;2023-02-28T01:28:02;101990.16;;;1.65;83.28
71857;BME280;63344;46.980;28.882;2023-02-28T01:30:30;101986.56;;;1.59;83.32
71857;BME280;63344;46.980;28.882;2023-02-28T01:32:57;101979.56;;;1.58;83.38
71857;BME280;63344;46.980;28.882;2023-02-28T01:35:25;101987.41;;;1.58;83.25
71857;BME280;63344;46.980;28.882;2023-02-28T01:37:53;101981.22;;;1.55;83.05
71857;BME280;63344;46.980;28.882;2023-02-28T01:40:20;101979.53;;;1.57;83.04
71857;BME280;63344;46.980;28.882;2023-02-28T01:42:47;101990.88;;;1.57;82.81
71857;BME280;63344;46.980;28.882;2023-02-28T01:45:29;101989.09;;;1.55;82.93
71857;BME280;63344;46.980;28.882;2023-02-28T01:48:02;101987.28;;;1.52;83.01
71857;BME280;63344;46.980;28.882;2023-02-28T01:50:34;101978.50;;;1.49;82.66
71857;BME280;63344;46.980;28.882;2023-02-28T01:53:07;101979.31;;;1.46;83.03
71857;BME280;63344;46.980;28.882;2023-02-28T01:55:39;101972.19;;;1.39;83.36
71857;BME280;63344;46.980;28.882;2023-02-28T01:58:08;101993.28;;;1.47;83.25
71857;BME280;63344;46.980;28.882;2023-02-28T02:00:37;101992.38;;;1.45;83.25
71857;BME280;63344;46.980;28.882;2023-02-28T02:03:11;101983.56;;;1.41;83.93
71857;BME280;63344;46.980;28.882;2023-02-28T02:05:43;101982.69;;;1.41;83.55
71857;BME280;63344;46.980;28.882;2023-02-28T02:08:21;101986.25;;;1.44;83.89
71857;BME280;63344;46.980;28.882;2023-02-28T02:10:55;101998.53;;;1.47;83.75
71857;BME280;63344;46.980;28.882;2023-02-28T02:13:47;101997.69;;;1.49;84.09
71857;BME280;63344;46.980;28.882;2023-02-28T02:19:14;102005.63;;;1.52;84.28
71857;BME280;63344;46.980;28.882;2023-02-28T02:34:42;102023.22;;;1.59;83.93
71857;BME280;63344;46.980;28.882;2023-02-28T02:37:36;102017.06;;;1.57;83.52
71857;BME280;63344;46.980;28.882;2023-02-28T02:45:32;102012.34;;;1.41;83.63
71857;BME280;63344;46.980;28.882;2023-02-28T02:48:08;102000.09;;;1.38;83.85
71857;BME280;63344;46.980;28.882;2023-02-28T02:50:52;102000.94;;;1.37;84.03
71857;BME280;63344;46.980;28.882;2023-02-28T02:53:25;101990.34;;;1.31;84.10
71857;BME280;63344;46.980;28.882;2023-02-28T02:55:55;102001.59;;;1.27;83.99
71857;BME280;63344;46.980;28.882;2023-02-28T02:58:26;101999.72;;;1.22;83.22
71857;BME280;63344;46.980;28.882;2023-02-28T03:00:58;101997.06;;;1.18;83.07
71857;BME280;63344;46.980;28.882;2023-02-28T03:03:29;101996.09;;;1.15;82.81
71857;BME280;63344;46.980;28.882;2023-02-28T03:05:59;101988.81;;;1.02;83.24
71857;BME280;63344;46.980;28.882;2023-02-28T03:08:29;101999.31;;;1.03;83.50
71857;BME280;63344;46.980;28.882;2023-02-28T03:11:01;102015.78;;;0.99;83.50
71857;BME280;63344;46.980;28.882;2023-02-28T03:16:28;102025.56;;;1.06;83.43
71857;BME280;63344;46.980;28.882;2023-02-28T03:24:49;102018.53;;;1.05;83.54
71857;BME280;63344;46.980;28.882;2023-02-28T03:27:31;102026.47;;;1.10;83.89
71857;BME280;63344;46.980;28.882;2023-02-28T03:30:17;102033.53;;;1.12;83.59
71857;BME280;63344;46.980;28.882;2023-02-28T03:33:08;102031.75;;;1.11;83.65
71857;BME280;63344;46.980;28.882;2023-02-28T03:35:51;102030.97;;;1.15;83.72
71857;BME280;63344;46.980;28.882;2023-02-28T03:40:57;102023.06;;;1.12;83.98
71857;BME280;63344;46.980;28.882;2023-02-28T03:43:29;102032.81;;;1.19;84.56
71857;BME280;63344;46.980;28.882;2023-02-28T03:46:00;102031.97;;;1.21;84.38
71857;BME280;63344;46.980;28.882;2023-02-28T03:48:36;102029.28;;;1.17;84.53
71857;BME280;63344;46.980;28.882;2023-02-28T03:51:09;102046.81;;;1.20;84.53
71857;BME280;63344;46.980;28.882;2023-02-28T03:53:43;102054.66;;;1.20;84.88
71857;BME280;63344;46.980;28.882;2023-02-28T03:56:31;102049.47;;;1.23;85.09
71857;BME280;63344;46.980;28.882;2023-02-28T03:59:04;102057.38;;;1.25;84.85
71857;BME280;63344;46.980;28.882;2023-02-28T04:01:38;102054.75;;;1.25;84.97
71857;BME280;63344;46.980;28.882;2023-02-28T04:04:09;102048.72;;;1.29;85.22
71857;BME280;63344;46.980;28.882;2023-02-28T04:06:38;102045.19;;;1.27;85.30
71857;BME280;63344;46.980;28.882;2023-02-28T04:09:10;102041.66;;;1.25;85.01
71857;BME280;63344;46.980;28.882;2023-02-28T04:11:45;102044.34;;;1.28;85.02
71857;BME280;63344;46.980;28.882;2023-02-28T04:14:16;102037.25;;;1.24;84.92
71857;BME280;63344;46.980;28.882;2023-02-28T04:16:44;102040.88;;;1.29;85.06
71857;BME280;63344;46.980;28.882;2023-02-28T04:19:12;102050.56;;;1.33;85.42
71857;BME280;63344;46.980;28.882;2023-02-28T04:21:45;102050.56;;;1.33;85.31
71857;BME280;63344;46.980;28.882;2023-02-28T04:24:14;102058.50;;;1.37;84.92
71857;BME280;63344;46.980;28.882;2023-02-28T04:26:46;102047.16;;;1.37;85.44
71857;BME280;63344;46.980;28.882;2023-02-28T04:29:20;102046.34;;;1.38;84.78
71857;BME280;63344;46.980;28.882;2023-02-28T04:31:49;102048.94;;;1.38;84.55
71857;BME280;63344;46.980;28.882;2023-02-28T04:34:16;102060.25;;;1.37;84.65
71857;BME280;63344;46.980;28.882;2023-02-28T04:36:47;102055.84;;;1.34;84.74
71857;BME280;63344;46.980;28.882;2023-02-28T04:39:35;102062.88;;;1.37;84.60
71857;BME280;63344;46.980;28.882;2023-02-28T04:42:03;102056.69;;;1.33;84.96
71857;BME280;63344;46.980;28.882;2023-02-28T04:44:30;102060.94;;;1.30;84.50
71857;BME280;63344;46.980;28.882;2023-02-28T04:46:59;102059.97;;;1.25;84.88
71857;BME280;63344;46.980;28.882;2023-02-28T04:49:26;102070.53;;;1.29;85.10
71857;BME280;63344;46.980;28.882;2023-02-28T04:51:54;102072.31;;;1.30;84.51
71857;BME280;63344;46.980;28.882;2023-02-28T04:54:21;102080.06;;;1.26;84.97
71857;BME280;63344;46.980;28.882;2023-02-28T04:56:49;102074.81;;;1.26;84.81
71857;BME280;63344;46.980;28.882;2023-02-28T04:59:17;102078.34;;;1.28;84.92
71857;BME280;63344;46.980;28.882;2023-02-28T05:01:49;102080.97;;;1.26;84.72
71857;BME280;63344;46.980;28.882;2023-02-28T05:04:16;102087.06;;;1.27;84.98
71857;BME280;63344;46.980;28.882;2023-02-28T05:06:44;102089.75;;;1.30;85.11
71857;BME280;63344;46.980;28.882;2023-02-28T05:09:25;102102.03;;;1.32;84.72
71857;BME280;63344;46.980;28.882;2023-02-28T05:12:08;102096.91;;;1.37;84.66
71857;BME280;63344;46.980;28.882;2023-02-28T05:14:36;102102.19;;;1.38;84.35
71857;BME280;63344;46.980;28.882;2023-02-28T05:17:08;102111.00;;;1.44;83.87
71857;BME280;63344;46.980;28.882;2023-02-28T05:19:35;102107.38;;;1.37;83.61
71857;BME280;63344;46.980;28.882;2023-02-28T05:22:32;102094.06;;;1.28;83.44
71857;BME280;63344;46.980;28.882;2023-02-28T05:24:59;102087.91;;;1.26;84.00
71857;BME280;63344;46.980;28.882;2023-02-28T05:27:27;102089.69;;;1.27;84.04
71857;BME280;63344;46.980;28.882;2023-02-28T05:29:58;102096.81;;;1.32;83.74
71857;BME280;63344;46.980;28.882;2023-02-28T05:32:27;102095.75;;;1.26;83.72
71857;BME280;63344;46.980;28.882;2023-02-28T05:34:56;102095.75;;;1.26;83.75
71857;BME280;63344;46.980;28.882;2023-02-28T05:37:49;102110.72;;;1.31;83.81
71857;BME280;63344;46.980;28.882;2023-02-28T05:40:17;102103.72;;;1.30;83.99
71857;BME280;63344;46.980;28.882;2023-02-28T05:42:50;102107.22;;;1.31;83.37
71857;BME280;63344;46.980;28.882;2023-02-28T05:45:20;102113.28;;;1.30;82.98
71857;BME280;63344;46.980;28.882;2023-02-28T05:47:55;102113.28;;;1.30;82.93
71857;BME280;63344;46.980;28.882;2023-02-28T05:50:22;102118.47;;;1.27;82.40
71857;BME280;63344;46.980;28.882;2023-02-28T05:52:50;102117.66;;;1.29;83.03
71857;BME280;63344;46.980;28.882;2023-02-28T05:55:20;102119.34;;;1.27;82.58
71857;BME280;63344;46.980;28.882;2023-02-28T05:57:47;102128.13;;;1.29;82.29
71857;BME280;63344;46.980;28.882;2023-02-28T06:00:15;102132.34;;;1.23;82.34
71857;BME280;63344;46.980;28.882;2023-02-28T06:02:44;102135.88;;;1.25;82.71
71857;BME280;63344;46.980;28.882;2023-02-28T06:05:14;102129.78;;;1.26;82.76
71857;BME280;63344;46.980;28.882;2023-02-28T06:07:42;102136.91;;;1.31;82.80
71857;BME280;63344;46.980;28.882;2023-02-28T06:10:10;102141.50;;;1.42;82.74
71857;BME280;63344;46.980;28.882;2023-02-28T06:12:38;102138.81;;;1.38;81.74
71857;BME280;63344;46.980;28.882;2023-02-28T06:15:05;102136.84;;;1.30;81.49
71857;BME280;63344;46.980;28.882;2023-02-28T06:17:33;102142.06;;;1.28;81.27
71857;BME280;63344;46.980;28.882;2023-02-28T06:20:02;102144.69;;;1.30;81.51
71857;BME280;63344;46.980;28.882;2023-02-28T06:22:32;102156.22;;;1.36;81.86
71857;BME280;63344;46.980;28.882;2023-02-28T06:25:00;102143.22;;;1.41;81.75
71857;BME280;63344;46.980;28.882;2023-02-28T06:27:28;102137.13;;;1.41;81.16
71857;BME280;63344;46.980;28.882;2023-02-28T06:29:55;102150.31;;;1.45;80.53
71857;BME280;63344;46.980;28.882;2023-02-28T06:32:23;102147.72;;;1.47;80.25
71857;BME280;63344;46.980;28.882;2023-02-28T06:34:50;102145.94;;;1.44;80.15
71857;BME280;63344;46.980;28.882;2023-02-28T06:37:17;102153.00;;;1.48;79.93
71857;BME280;63344;46.980;28.882;2023-02-28T06:39:45;102151.19;;;1.46;79.95
71857;BME280;63344;46.980;28.882;2023-02-28T06:42:12;102144.25;;;1.48;79.92
71857;BME280;63344;46.980;28.882;2023-02-28T06:44:39;102140.88;;;1.52;80.18
71857;BME280;63344;46.980;28.882;2023-02-28T06:47:07;102135.78;;;1.59;79.76
71857;BME280;63344;46.980;28.882;2023-02-28T06:49:35;102137.63;;;1.64;79.93
71857;BME280;63344;46.980;28.882;2023-02-28T06:52:02;102145.78;;;1.76;79.46
71857;BME280;63344;46.980;28.882;2023-02-28T06:54:29;102138.81;;;1.76;78.75
71857;BME280;63344;46.980;28.882;2023-02-28T06:56:58;102144.09;;;1.78;78.89
71857;BME280;63344;46.980;28.882;2023-02-28T06:59:25;102158.91;;;1.77;78.63
71857;BME280;63344;46.980;28.882;2023-02-28T07:01:52;102155.34;;;1.74;78.72
71857;BME280;63344;46.980;28.882;2023-02-28T07:04:21;102160.59;;;1.75;79.15
71857;BME280;63344;46.980;28.882;2023-02-28T07:06:49;102142.31;;;1.77;78.89
71857;BME280;63344;46.980;28.882;2023-02-28T07:09:16;102152.72;;;1.74;78.65
71857;BME280;63344;46.980;28.882;2023-02-28T07:11:44;102151.88;;;1.75;78.78
71857;BME280;63344;46.980;28.882;2023-02-28T07:14:11;102160.81;;;1.85;79.24
71857;BME280;63344;46.980;28.882;2023-02-28T07:16:38;102161.06;;;1.97;79.45
71857;BME280;63344;46.980;28.882;2023-02-28T07:19:06;102162.25;;;2.11;78.72
71857;BME280;63344;46.980;28.882;2023-02-28T07:21:37;102160.66;;;2.19;78.31
71857;BME280;63344;46.980;28.882;2023-02-28T07:24:16;102160.56;;;2.15;77.30
71857;BME280;63344;46.980;28.882;2023-02-28T07:26:46;102169.44;;;2.20;77.23
71857;BME280;63344;46.980;28.882;2023-02-28T07:29:15;102164.34;;;2.28;77.28
71857;BME280;63344;46.980;28.882;2023-02-28T07:31:42;102172.22;;;2.28;77.29
71857;BME280;63344;46.980;28.882;2023-02-28T07:34:15;102182.91;;;2.38;76.62
71857;BME280;63344;46.980;28.882;2023-02-28T07:36:42;102181.06;;;2.34;76.47
71857;BME280;63344;46.980;28.882;2023-02-28T07:39:09;102178.25;;;2.25;76.07
71857;BME280;63344;46.980;28.882;2023-02-28T07:41:37;102180.72;;;2.17;76.71
71857;BME280;63344;46.980;28.882;2023-02-28T07:44:31;102173.09;;;2.28;77.17
71857;BME280;63344;46.980;28.882;2023-02-28T07:46:59;102176.72;;;2.35;77.25
71857;BME280;63344;46.980;28.882;2023-02-28T07:49:26;102185.72;;;2.48;77.22
71857;BME280;63344;46.980;28.882;2023-02-28T07:51:53;102180.59;;;2.54;76.63
71857;BME280;63344;46.980;28.882;2023-02-28T07:54:20;102180.81;;;2.66;76.43
71857;BME280;63344;46.980;28.882;2023-02-28T07:56:48;102194.22;;;2.80;75.96
71857;BME280;63344;46.980;28.882;2023-02-28T07:59:15;102171.66;;;2.90;76.06
71857;BME280;63344;46.980;28.882;2023-02-28T08:01:42;102201.59;;;3.03;75.48
71857;BME280;63344;46.980;28.882;2023-02-28T08:04:11;102184.88;;;2.97;75.23
71857;BME280;63344;46.980;28.882;2023-02-28T08:06:38;102193.66;;;2.98;74.56
71857;BME280;63344;46.980;28.882;2023-02-28T08:09:05;102211.13;;;2.97;74.73
71857;BME280;63344;46.980;28.882;2023-02-28T08:11:33;102206.75;;;2.96;74.42
71857;BME280;63344;46.980;28.882;2023-02-28T08:14:00;102209.50;;;3.04;74.01
71857;BME280;63344;46.980;28.882;2023-02-28T08:16:28;102221.06;;;3.15;74.33
71857;BME280;63344;46.980;28.882;2023-02-28T08:18:55;102222.94;;;3.23;73.93
71857;BME280;63344;46.980;28.882;2023-02-28T08:21:22;102229.22;;;3.31;73.99
71857;BME280;63344;46.980;28.882;2023-02-28T08:23:50;102221.47;;;3.38;73.39
71857;BME280;63344;46.980;28.882;2023-02-28T08:26:19;102218.72;;;3.31;71.82
71857;BME280;63344;46.980;28.882;2023-02-28T08:28:46;102221.19;;;3.23;71.55
71857;BME280;63344;46.980;28.882;2023-02-28T08:31:16;102220.41;;;3.26;71.41
71857;BME280;63344;46.980;28.882;2023-02-28T08:33:43;102221.41;;;3.35;71.49
71857;BME280;63344;46.980;28.882;2023-02-28T08:36:12;102218.00;;;3.41;71.23
71857;BME280;63344;46.980;28.882;2023-02-28T08:38:39;102231.41;;;3.56;70.99
71857;BME280;63344;46.980;28.882;2023-02-28T08:41:09;102228.72;;;3.53;69.89
71857;BME280;63344;46.980;28.882;2023-02-28T08:43:38;102221.56;;;3.45;69.53
71857;BME280;63344;46.980;28.882;2023-02-28T08:46:07;102221.75;;;3.55;69.64
71857;BME280;63344;46.980;28.882;2023-02-28T08:48:35;102208.50;;;3.49;68.89
71857;BME280;63344;46.980;28.882;2023-02-28T08:51:08;102223.28;;;3.43;68.77
71857;BME280;63344;46.980;28.882;2023-02-28T08:53:37;102214.38;;;3.33;69.31
71857;BME280;63344;46.980;28.882;2023-02-28T08:56:08;102206.44;;;3.28;69.13
71857;BME280;63344;46.980;28.882;2023-02-28T08:58:36;102216.97;;;3.31;69.22
71857;BME280;63344;46.980;28.882;2023-02-28T09:01:11;102204.03;;;3.42;69.87
71857;BME280;63344;46.980;28.882;2023-02-28T09:03:39;102212.31;;;3.68;70.32
71857;BME280;63344;46.980;28.882;2023-02-28T09:06:08;102207.22;;;3.77;69.13
71857;BME280;63344;46.980;28.882;2023-02-28T09:08:36;102195.06;;;3.87;68.98
71857;BME280;63344;46.980;28.882;2023-02-28T09:11:04;102203.09;;;3.96;68.68
71857;BME280;63344;46.980;28.882;2023-02-28T09:13:32;102209.09;;;3.86;67.29
71857;BME280;63344;46.980;28.882;2023-02-28T09:16:01;102208.00;;;3.72;67.72
71857;BME280;63344;46.980;28.882;2023-02-28T09:18:29;102208.84;;;3.71;68.13
71857;BME280;63344;46.980;28.882;2023-02-28T09:20:58;102213.34;;;3.78;68.34
71857;BME280;63344;46.980;28.882;2023-02-28T09:23:26;102219.69;;;3.92;68.36
71857;BME280;63344;46.980;28.882;2023-02-28T09:26:16;102220.66;;;3.99;68.09
71857;BME280;63344;46.980;28.882;2023-02-28T09:28:45;102216.16;;;3.90;68.02
71857;BME280;63344;46.980;28.882;2023-02-28T09:31:18;102205.69;;;3.95;67.40
71857;BME280;63344;46.980;28.882;2023-02-28T09:33:49;102213.75;;;4.06;67.50
71857;BME280;63344;46.980;28.882;2023-02-28T09:36:17;102202.34;;;4.04;67.65
71857;BME280;63344;46.980;28.882;2023-02-28T09:38:47;102208.69;;;4.21;67.73
71857;BME280;63344;46.980;28.882;2023-02-28T09:41:19;102209.66;;;4.28;66.25
71857;BME280;63344;46.980;28.882;2023-02-28T09:43:50;102201.63;;;4.18;66.62
71857;BME280;63344;46.980;28.882;2023-02-28T09:46:41;102199.16;;;4.31;66.82
71857;BME280;63344;46.980;28.882;2023-02-28T09:49:15;102203.84;;;4.56;67.05
71857;BME280;63344;46.980;28.882;2023-02-28T09:52:34;102208.25;;;4.59;65.85
71857;BME280;63344;46.980;28.882;2023-02-28T09:54:54;102197.59;;;4.47;65.42
71857;BME280;63344;46.980;28.882;2023-02-28T09:57:40;102202.88;;;4.47;65.13
71857;BME280;63344;46.980;28.882;2023-02-28T10:03:23;102198.50;;;4.49;65.01
71857;BME280;63344;46.980;28.882;2023-02-28T10:06:11;102207.19;;;4.40;65.77
71857;BME280;63344;46.980;28.882;2023-02-28T10:11:32;102206.53;;;4.58;65.27
71857;BME280;63344;46.980;28.882;2023-02-28T10:16:50;102207.44;;;4.62;65.75
71857;BME280;63344;46.980;28.882;2023-02-28T10:22:04;102180.19;;;4.58;64.28
71857;BME280;63344;46.980;28.882;2023-02-28T10:24:46;102176.91;;;4.79;65.07
71857;BME280;63344;46.980;28.882;2023-02-28T10:27:17;102182.38;;;4.99;64.61
71857;BME280;63344;46.980;28.882;2023-02-28T10:29:53;102185.16;;;5.16;64.03
71857;BME280;63344;46.980;28.882;2023-02-28T10:32:36;102176.47;;;5.26;63.64
71857;BME280;63344;46.980;28.882;2023-02-28T10:35:17;102165.97;;;5.32;63.61
71857;BME280;63344;46.980;28.882;2023-02-28T10:37:49;102174.75;;;5.30;62.73
71857;BME280;63344;46.980;28.882;2023-02-28T10:43:31;102169.97;;;4.89;63.37
71857;BME280;63344;46.980;28.882;2023-02-28T10:46:15;102163.78;;;4.82;63.89
71857;BME280;63344;46.980;28.882;2023-02-28T10:52:00;102152.69;;;5.15;64.07
71857;BME280;63344;46.980;28.882;2023-02-28T10:54:34;102152.84;;;5.38;63.63
71857;BME280;63344;46.980;28.882;2023-02-28T10:57:19;102146.81;;;5.55;62.08
71857;BME280;63344;46.980;28.882;2023-02-28T10:59:51;102143.13;;;5.25;62.17
71857;BME280;63344;46.980;28.882;2023-02-28T11:04:57;102134.00;;;4.86;63.45
71857;BME280;63344;46.980;28.882;2023-02-28T11:07:25;102134.78;;;4.79;63.37
71857;BME280;63344;46.980;28.882;2023-02-28T11:09:57;102145.31;;;4.76;63.89
71857;BME280;63344;46.980;28.882;2023-02-28T11:12:37;102135.69;;;4.78;64.28
71857;BME280;63344;46.980;28.882;2023-02-28T11:15:23;102133.06;;;4.83;64.01
71857;BME280;63344;46.980;28.882;2023-02-28T11:18:19;102130.56;;;4.93;64.36
71857;BME280;63344;46.980;28.882;2023-02-28T11:20:50;102135.97;;;5.10;63.93
71857;BME280;63344;46.980;28.882;2023-02-28T11:23:21;102127.16;;;5.08;64.48
71857;BME280;63344;46.980;28.882;2023-02-28T11:25:57;102139.47;;;5.09;64.78
71857;BME280;63344;46.980;28.882;2023-02-28T11:28:31;102136.84;;;5.12;64.54
71857;BME280;63344;46.980;28.882;2023-02-28T11:31:05;102134.25;;;5.14;64.18
71857;BME280;63344;46.980;28.882;2023-02-28T11:36:14;102142.84;;;4.91;63.92
71857;BME280;63344;46.980;28.882;2023-02-28T11:38:48;102132.25;;;4.88;64.33
71857;BME280;63344;46.980;28.882;2023-02-28T11:44:34;102128.44;;;4.55;64.57
71857;BME280;63344;46.980;28.882;2023-02-28T11:47:15;102140.59;;;4.46;65.10
71857;BME280;63344;46.980;28.882;2023-02-28T11:52:59;102131.84;;;4.47;65.39
71857;BME280;63344;46.980;28.882;2023-02-28T11:55:38;102125.81;;;4.58;65.14
71857;BME280;63344;46.980;28.882;2023-02-28T12:01:01;102120.97;;;5.05;64.63
71857;BME280;63344;46.980;28.882;2023-02-28T12:06:13;102114.94;;;5.13;63.71
71857;BME280;63344;46.980;28.882;2023-02-28T12:09:04;102102.75;;;5.31;63.57
71857;BME280;63344;46.980;28.882;2023-02-28T12:11:58;102110.72;;;5.43;63.20
71857;BME280;63344;46.980;28.882;2023-02-28T12:14:49;102113.34;;;5.38;62.89
71857;BME280;63344;46.980;28.882;2023-02-28T12:17:43;102103.59;;;5.27;63.02
71857;BME280;63344;46.980;28.882;2023-02-28T12:21:18;102109.88;;;5.44;62.61
71857;BME280;63344;46.980;28.882;2023-02-28T12:32:13;102105.50;;;5.46;61.79
71857;BME280;63344;46.980;28.882;2023-02-28T12:34:58;102106.38;;;5.45;61.81
71857;BME280;63344;46.980;28.882;2023-02-28T12:37:44;102103.97;;;5.85;61.66
71857;BME280;63344;46.980;28.882;2023-02-28T12:40:23;102097.81;;;5.89;60.51
71857;BME280;63344;46.980;28.882;2023-02-28T12:43:02;102103.09;;;5.92;60.35
71857;BME280;63344;46.980;28.882;2023-02-28T12:46:07;102102.31;;;6.09;60.96
71857;BME280;63344;46.980;28.882;2023-02-28T12:48:48;102096.19;;;6.11;59.83
71857;BME280;63344;46.980;28.882;2023-02-28T12:51:25;102095.13;;;5.80;60.21
71857;BME280;63344;46.980;28.882;2023-02-28T12:59:36;102093.56;;;6.16;60.56
71857;BME280;63344;46.980;28.882;2023-02-28T13:11:30;102086.13;;;5.38;61.75
71857;BME280;63344;46.980;28.882;2023-02-28T13:14:03;102076.34;;;5.22;62.53
71857;BME280;63344;46.980;28.882;2023-02-28T13:19:20;102060.38;;;4.98;63.25
71857;BME280;63344;46.980;28.882;2023-02-28T13:21:51;102071.81;;;5.05;63.71
71857;BME280;63344;46.980;28.882;2023-02-28T13:29:35;102069.31;;;5.21;63.35
71857;BME280;63344;46.980;28.882;2023-02-28T13:34:49;102056.16;;;5.17;63.15
71857;BME280;63344;46.980;28.882;2023-02-28T13:37:43;102052.63;;;5.18;63.41
71857;BME280;63344;46.980;28.882;2023-02-28T13:47:44;102028.84;;;5.06;63.13
71857;BME280;63344;46.980;28.882;2023-02-28T13:58:46;102031.41;;;4.94;62.60
71857;BME280;63344;46.980;28.882;2023-02-28T14:07:25;102027.81;;;4.87;63.57
71857;BME280;63344;46.980;28.882;2023-02-28T14:10:05;102033.09;;;4.89;63.96
71857;BME280;63344;46.980;28.882;2023-02-28T14:12:59;102033.16;;;4.95;63.86
71857;BME280;63344;46.980;28.882;2023-02-28T14:21:29;102019.03;;;4.87;63.36
71857;BME280;63344;46.980;28.882;2023-02-28T14:30:48;102031.09;;;4.57;64.10
71857;BME280;63344;46.980;28.882;2023-02-28T14:32:58;102026.72;;;4.57;64.45
71857;BME280;63344;46.980;28.882;2023-02-28T14:38:43;102039.94;;;4.67;65.46
71857;BME280;63344;46.980;28.882;2023-02-28T14:41:36;102029.44;;;4.68;65.19
71857;BME280;63344;46.980;28.882;2023-02-28T14:46:43;102028.63;;;4.74;64.78
71857;BME280;63344;46.980;28.882;2023-02-28T14:49:18;102033.00;;;4.73;64.69
71857;BME280;63344;46.980;28.882;2023-02-28T14:51:49;102031.25;;;4.74;64.29
71857;BME280;63344;46.980;28.882;2023-02-28T14:54:20;102029.41;;;4.67;64.12
71857;BME280;63344;46.980;28.882;2023-02-28T14:56:52;102032.94;;;4.66;64.12
71857;BME280;63344;46.980;28.882;2023-02-28T14:59:35;102030.28;;;4.64;64.15
71857;BME280;63344;46.980;28.882;2023-02-28T15:02:21;102030.25;;;4.63;64.24
71857;BME280;63344;46.980;28.882;2023-02-28T15:04:54;102028.47;;;4.58;64.20
71857;BME280;63344;46.980;28.882;2023-02-28T15:07:22;102035.44;;;4.52;64.13
71857;BME280;63344;46.980;28.882;2023-02-28T15:12:53;102029.94;;;4.26;64.94
71857;BME280;63344;46.980;28.882;2023-02-28T15:15:40;102028.06;;;4.14;65.50
71857;BME280;63344;46.980;28.882;2023-02-28T15:18:53;102024.41;;;4.01;65.79
71857;BME280;63344;46.980;28.882;2023-02-28T15:21:28;102026.06;;;3.93;65.94
71857;BME280;63344;46.980;28.882;2023-02-28T15:23:58;102026.88;;;3.86;66.37
71857;BME280;63344;46.980;28.882;2023-02-28T15:26:30;102031.16;;;3.79;66.81
71857;BME280;63344;46.980;28.882;2023-02-28T15:29:11;102020.47;;;3.65;67.07
71857;BME280;63344;46.980;28.882;2023-02-28T15:31:44;102031.81;;;3.59;66.77
71857;BME280;63344;46.980;28.882;2023-02-28T15:34:42;102034.41;;;3.56;66.86
71857;BME280;63344;46.980;28.882;2023-02-28T15:37:46;102026.44;;;3.50;67.18
71857;BME280;63344;46.980;28.882;2023-02-28T15:40:35;102042.13;;;3.47;67.36
71857;BME280;63344;46.980;28.882;2023-02-28T15:43:31;102029.72;;;3.34;68.14
71857;BME280;63344;46.980;28.882;2023-02-28T15:46:01;102041.88;;;3.27;68.37